Olympic National Park, WA

07:01 PM PDT am 25. September 2016 (GMT -0700)
Lake Dawn | | Change Station

Höhe 1864 ft 48.04 °N, 123.43 °W | Updated 1 minute ago

Clear
Heiter
55.9 °F
gefühlte 55.9 °F
N
1.6
Wind Wechselnd Wind aus Nordwest
Gusts 1.6 mph

Heute
Max. -- | schwach -- °F
--% Regenrisiko
Gestern
Max. -- | schwach -- °F
Precip. -- inch
Druck 30.32 inch
Sichtweite 10.0 Meilen
Wolken Heiter
Taupunkt 49 °F
Feuchtigkeit 77%
Regen 0.00 inch
Schneehöhe Nicht verfügbar..
7:05 AM 7:04 PM
Letztes Viertel, 23% visible
METAR KCLM 260153Z AUTO 13005KT 10SM CLR 16/09 A3032 RMK AO2 SLP267 T01560094
Druck 30.32 inch
Sichtweite 10.0 Meilen
Wolken Heiter
Taupunkt 49 °F
Feuchtigkeit 77%
Regen 0.00 inch
Schneehöhe Nicht verfügbar..
7:05 AM 7:04 PM
Letztes Viertel, 23% visible
METAR KCLM 260153Z AUTO 13005KT 10SM CLR 16/09 A3032 RMK AO2 SLP267 T01560094

10-Day Weather Forecast

Almanac

Astronomie

Sep. 25, 2016 Aufgang Untergang
Genaue Zeit
Bürgerliche Dämmerung
Nautische Dämmerung
Astronomische Dämmerung
Mond
Länge des sichtbaren Lichts
Tageslänge
Tomorrow will be .
, % of the Moon is Illuminated

Heutige Rekorde

State Highs State Lows

Community

WunderPhotos

Upload Photos

1,941,811 Fotos hochgeladen!

WunderBlog® & News

Nearby

Luftqualität

  Luftqualität LQ Index Schadstoff
Not available.

Schneehöhe

Station Depth Höhe

Erdbebenaktivität

Stadt Distance Mag. Time & Date
Minimum magnitude displayed is 2.5.

küstennahe Wassertemperaturen

Ort Temperatur

Stations

Wetterstationen in der Umgebung

Stationsstandort Temp. Windchill Taupunkt Feuchtigkeit Wind Precip. Höhe Aktualisiert Art
                   

Watches & Warnings

There are currently no watches in effect.